createdAt,value
2019-01-29T00:02:19.473Z,61.00
2019-01-29T00:04:51.363Z,61.20
2019-01-29T00:07:23.218Z,61.00
2019-01-29T00:09:55.085Z,60.00
2019-01-29T00:12:26.933Z,60.10
2019-01-29T00:14:58.806Z,60.30
2019-01-29T00:17:30.648Z,61.00
2019-01-29T00:20:02.519Z,61.20
2019-01-29T00:22:34.356Z,61.20
2019-01-29T00:25:08.570Z,60.80
2019-01-29T00:27:40.389Z,61.20
2019-01-29T00:30:12.502Z,61.50
2019-01-29T00:32:44.337Z,61.00
2019-01-29T00:35:17.190Z,61.30
2019-01-29T00:37:49.021Z,62.10
2019-01-29T00:40:20.884Z,62.10
2019-01-29T00:42:52.722Z,61.50
2019-01-29T00:45:24.609Z,61.90
2019-01-29T00:47:56.579Z,61.60
2019-01-29T00:50:28.485Z,61.80
2019-01-29T00:53:00.328Z,61.80
2019-01-29T00:55:32.326Z,61.80
2019-01-29T00:58:04.287Z,62.20
2019-01-29T01:00:36.186Z,61.70
2019-01-29T01:03:08.035Z,61.80
2019-01-29T01:05:39.909Z,61.00
2019-01-29T01:08:11.750Z,60.90
2019-01-29T01:10:43.722Z,61.10
2019-01-29T01:13:15.570Z,61.50
2019-01-29T01:15:47.481Z,62.00
2019-01-29T01:18:19.423Z,62.10
2019-01-29T01:20:51.339Z,61.80
2019-01-29T01:23:23.178Z,61.70
2019-01-29T01:25:55.052Z,61.90
2019-01-29T01:28:26.899Z,62.10
2019-01-29T01:30:58.776Z,61.90
2019-01-29T01:33:30.614Z,61.60
2019-01-29T01:36:02.474Z,60.90
2019-01-29T01:38:34.317Z,61.60
2019-01-29T01:41:06.199Z,61.70
2019-01-29T01:43:38.105Z,61.60
2019-01-29T01:46:09.981Z,61.40
2019-01-29T01:48:41.935Z,61.30
2019-01-29T01:51:13.813Z,60.90
2019-01-29T01:53:45.649Z,59.80
2019-01-29T01:56:17.530Z,60.20
2019-01-29T01:58:49.371Z,60.10
2019-01-29T02:01:21.265Z,59.90
2019-01-29T02:03:53.125Z,60.00
2019-01-29T02:06:25.008Z,59.90
2019-01-29T02:08:56.878Z,59.50
2019-01-29T02:11:28.746Z,59.30
2019-01-29T02:14:00.718Z,59.30
2019-01-29T02:16:32.697Z,59.40
2019-01-29T02:19:04.595Z,59.60
2019-01-29T02:21:36.506Z,59.80
2019-01-29T02:24:08.416Z,60.00
2019-01-29T02:26:40.328Z,59.00
2019-01-29T02:29:12.195Z,59.60
2019-01-29T02:31:44.088Z,60.30
2019-01-29T02:34:16.000Z,60.30
2019-01-29T02:36:47.882Z,60.50
2019-01-29T02:39:19.824Z,60.50
2019-01-29T02:41:51.689Z,60.80
2019-01-29T02:44:23.601Z,60.90
2019-01-29T02:46:55.473Z,60.90
2019-01-29T02:49:27.398Z,61.10
2019-01-29T02:51:59.269Z,61.40
2019-01-29T02:54:31.159Z,60.90
2019-01-29T02:57:03.148Z,60.50
2019-01-29T02:59:35.056Z,60.00
2019-01-29T03:02:07.204Z,60.40
2019-01-29T03:04:39.079Z,59.80
2019-01-29T03:07:10.998Z,59.80
2019-01-29T03:09:43.523Z,59.70
2019-01-29T03:12:15.898Z,60.10
2019-01-29T03:14:47.774Z,59.90
2019-01-29T03:17:19.691Z,60.00
2019-01-29T03:19:51.650Z,60.00
2019-01-29T03:22:23.580Z,59.70
2019-01-29T03:24:55.456Z,59.70
2019-01-29T03:27:27.369Z,59.90
2019-01-29T03:29:59.241Z,59.80
2019-01-29T03:32:31.152Z,59.80
2019-01-29T03:35:02.992Z,59.80
2019-01-29T03:37:34.980Z,59.90
2019-01-29T03:40:09.619Z,60.00
2019-01-29T03:42:41.485Z,59.80
2019-01-29T03:45:16.014Z,60.10
2019-01-29T03:47:47.950Z,60.30
2019-01-29T03:50:21.010Z,59.50
2019-01-29T03:52:52.911Z,60.40
2019-01-29T03:55:24.709Z,60.10
2019-01-29T03:57:56.592Z,59.80
2019-01-29T04:00:29.679Z,59.30
2019-01-29T04:03:01.574Z,58.70
2019-01-29T04:05:33.458Z,59.50
2019-01-29T04:08:05.324Z,60.10
2019-01-29T04:10:37.162Z,60.20
2019-01-29T04:13:09.033Z,59.90
2019-01-29T04:15:40.868Z,60.10
2019-01-29T04:18:12.743Z,60.10
2019-01-29T04:20:44.572Z,60.10
2019-01-29T04:23:16.511Z,59.40
2019-01-29T04:25:50.219Z,59.40
2019-01-29T04:28:22.081Z,58.90
2019-01-29T04:30:53.915Z,59.00
2019-01-29T04:33:25.787Z,58.90
2019-01-29T04:35:57.617Z,59.10
2019-01-29T04:38:29.585Z,58.70
2019-01-29T04:41:01.421Z,59.40
2019-01-29T04:43:33.427Z,58.70
2019-01-29T04:46:05.255Z,58.90
2019-01-29T04:48:37.123Z,59.00
2019-01-29T04:51:08.973Z,59.10
2019-01-29T04:53:40.833Z,59.10
2019-01-29T04:56:12.681Z,58.80
2019-01-29T04:58:44.566Z,58.50
2019-01-29T05:01:18.405Z,58.00
2019-01-29T05:03:50.028Z,57.80
2019-01-29T05:06:21.928Z,57.30
2019-01-29T05:08:53.905Z,57.60
2019-01-29T05:11:25.750Z,58.20
2019-01-29T05:13:57.628Z,57.80
2019-01-29T05:16:29.455Z,57.90
2019-01-29T05:19:01.323Z,58.00
2019-01-29T05:21:33.161Z,57.90
2019-01-29T05:24:06.877Z,57.50
2019-01-29T05:26:38.801Z,57.70
2019-01-29T05:29:10.855Z,57.60
2019-01-29T05:31:42.763Z,57.30
2019-01-29T05:34:14.694Z,57.30
2019-01-29T05:36:46.572Z,57.60
2019-01-29T05:39:18.498Z,57.30
2019-01-29T05:41:50.353Z,58.40
2019-01-29T05:44:22.228Z,58.30
2019-01-29T05:46:54.122Z,58.20
2019-01-29T05:49:26.092Z,58.30
2019-01-29T05:51:57.942Z,58.50
2019-01-29T05:54:30.206Z,58.40
2019-01-29T05:57:02.073Z,58.00
2019-01-29T05:59:33.935Z,56.40
2019-01-29T06:02:05.765Z,57.20
2019-01-29T06:04:37.832Z,58.00
2019-01-29T06:07:09.657Z,57.00
2019-01-29T06:09:41.644Z,57.50
2019-01-29T06:12:13.490Z,57.40
2019-01-29T06:14:45.375Z,56.70
2019-01-29T06:17:17.202Z,56.90
2019-01-29T06:19:49.102Z,57.20
2019-01-29T06:22:20.933Z,57.40
2019-01-29T06:24:52.835Z,57.70
2019-01-29T06:27:24.684Z,57.80
2019-01-29T06:29:56.661Z,58.10
2019-01-29T06:32:28.516Z,58.40
2019-01-29T06:35:00.706Z,59.00
2019-01-29T06:37:32.415Z,60.00
2019-01-29T06:40:05.109Z,60.10
2019-01-29T06:42:36.943Z,59.90
2019-01-29T06:45:12.447Z,59.90
2019-01-29T06:47:44.609Z,59.80
2019-01-29T06:50:19.581Z,59.70
2019-01-29T06:52:51.437Z,59.30
2019-01-29T06:55:24.016Z,58.90
2019-01-29T06:57:56.287Z,58.80
2019-01-29T07:00:30.879Z,57.80
2019-01-29T07:03:03.303Z,57.90
2019-01-29T07:05:35.172Z,58.20
2019-01-29T07:08:07.027Z,58.30
2019-01-29T07:10:38.921Z,58.20
2019-01-29T07:13:10.765Z,58.40
2019-01-29T07:16:01.606Z,58.30
2019-01-29T07:19:01.570Z,58.80
2019-01-29T07:21:33.515Z,58.70
2019-01-29T07:24:05.758Z,58.40
2019-01-29T07:26:37.624Z,57.40
2019-01-29T07:29:09.849Z,57.30
2019-01-29T07:31:41.720Z,56.90
2019-01-29T07:34:13.606Z,56.70
2019-01-29T07:36:45.479Z,56.80
2019-01-29T07:39:17.309Z,56.10
2019-01-29T07:41:49.182Z,56.40
2019-01-29T07:44:21.025Z,56.50
2019-01-29T07:46:52.923Z,56.20
2019-01-29T07:49:24.762Z,55.50
2019-01-29T07:51:56.710Z,55.70
2019-01-29T07:54:33.367Z,55.00
2019-01-29T07:57:02.140Z,55.20
2019-01-29T07:59:33.990Z,55.60
2019-01-29T08:02:05.862Z,56.40
2019-01-29T08:04:37.708Z,55.60
2019-01-29T08:07:09.587Z,54.70
2019-01-29T08:09:41.422Z,54.60
2019-01-29T08:12:13.305Z,54.20
2019-01-29T08:14:45.153Z,54.10
2019-01-29T08:17:17.024Z,54.70
2019-01-29T08:19:48.862Z,54.60
2019-01-29T08:22:20.827Z,55.50
2019-01-29T08:25:01.195Z,55.20
2019-01-29T08:27:26.295Z,55.60
2019-01-29T08:29:58.133Z,55.20
2019-01-29T08:32:30.015Z,55.50
2019-01-29T08:35:01.840Z,55.20
2019-01-29T08:37:33.712Z,54.60
2019-01-29T08:40:06.314Z,55.80
2019-01-29T08:42:38.224Z,55.80
2019-01-29T08:45:10.655Z,55.40
2019-01-29T08:47:42.535Z,54.50
2019-01-29T08:50:19.145Z,53.80
2019-01-29T08:52:51.023Z,53.50
2019-01-29T08:55:23.046Z,53.00
2019-01-29T08:57:54.926Z,52.70
2019-01-29T09:00:26.778Z,52.60
2019-01-29T09:02:58.759Z,52.40
2019-01-29T09:05:30.609Z,52.30
2019-01-29T09:08:02.483Z,50.90
2019-01-29T09:10:34.330Z,50.50
2019-01-29T09:13:06.203Z,50.70
2019-01-29T09:15:38.066Z,49.50
2019-01-29T09:18:09.938Z,48.50
2019-01-29T09:20:41.787Z,48.60
2019-01-29T09:23:13.674Z,48.70
2019-01-29T09:25:45.510Z,49.80
2019-01-29T09:28:18.629Z,50.00
2019-01-29T09:30:50.524Z,50.60
2019-01-29T09:33:22.402Z,50.70
2019-01-29T09:35:54.279Z,50.00
2019-01-29T09:38:26.149Z,50.00
2019-01-29T09:40:57.979Z,50.30
2019-01-29T09:43:29.843Z,49.90
2019-01-29T09:46:01.683Z,50.30
2019-01-29T09:48:33.549Z,50.70
2019-01-29T09:51:05.387Z,50.50
2019-01-29T09:53:37.251Z,50.20
2019-01-29T09:56:09.102Z,49.90
2019-01-29T09:58:40.965Z,48.30
2019-01-29T10:01:12.806Z,48.60
2019-01-29T10:03:44.673Z,48.90
2019-01-29T10:06:16.514Z,48.50
2019-01-29T10:08:48.393Z,48.10
2019-01-29T10:11:20.231Z,46.70
2019-01-29T10:13:52.093Z,47.30
2019-01-29T10:16:23.970Z,46.90
2019-01-29T10:18:55.870Z,47.30
2019-01-29T10:21:27.861Z,46.40
2019-01-29T10:23:59.694Z,45.20
2019-01-29T10:26:31.566Z,42.30
2019-01-29T10:29:03.471Z,42.30
2019-01-29T10:31:35.349Z,39.50
2019-01-29T10:34:07.197Z,39.90
2019-01-29T10:36:39.100Z,39.60
2019-01-29T10:39:11.483Z,40.80
2019-01-29T10:41:43.386Z,41.60
2019-01-29T10:44:15.216Z,43.10
2019-01-29T10:46:47.150Z,44.00
2019-01-29T10:49:19.062Z,44.80
2019-01-29T10:51:50.939Z,43.90
2019-01-29T10:54:22.777Z,44.40
2019-01-29T10:56:54.663Z,45.10
2019-01-29T10:59:26.535Z,45.20
2019-01-29T11:01:58.538Z,44.90
2019-01-29T11:04:30.376Z,44.00
2019-01-29T11:07:02.359Z,43.50
2019-01-29T11:09:34.193Z,35.20
2019-01-29T11:12:06.582Z,30.00
2019-01-29T11:14:38.425Z,29.70
2019-01-29T11:17:10.328Z,30.80
2019-01-29T11:19:42.223Z,32.80
2019-01-29T11:22:14.271Z,34.40
2019-01-29T11:24:46.246Z,36.00
2019-01-29T11:27:18.487Z,37.20
2019-01-29T11:29:50.330Z,38.40
2019-01-29T11:32:22.696Z,38.70
2019-01-29T11:34:54.908Z,39.30
2019-01-29T11:37:26.915Z,38.40
2019-01-29T11:39:58.809Z,37.70
2019-01-29T11:42:30.835Z,37.90
2019-01-29T11:45:02.675Z,37.60
2019-01-29T11:47:34.572Z,38.60
2019-01-29T11:50:07.835Z,37.60
2019-01-29T11:52:40.069Z,37.40
2019-01-29T11:55:13.076Z,37.90
2019-01-29T11:57:46.852Z,37.20
2019-01-29T12:00:28.828Z,37.10
2019-01-29T12:03:00.717Z,36.30
2019-01-29T12:05:32.568Z,36.10
2019-01-29T12:08:04.573Z,35.90
2019-01-29T12:10:36.445Z,36.60
2019-01-29T12:13:08.623Z,33.60
2019-01-29T12:15:40.467Z,30.20
2019-01-29T12:18:12.406Z,24.40
2019-01-29T12:20:44.321Z,19.70
2019-01-29T12:23:16.547Z,17.40
2019-01-29T12:25:48.510Z,18.00
2019-01-29T12:28:20.367Z,15.80
2019-01-29T12:30:52.273Z,14.60
2019-01-29T12:33:24.136Z,15.50
2019-01-29T12:35:56.055Z,15.70
2019-01-29T12:38:27.932Z,15.90
2019-01-29T12:40:59.899Z,19.10
2019-01-29T12:43:31.743Z,20.60
2019-01-29T12:46:03.745Z,23.50
2019-01-29T12:48:35.770Z,26.50
2019-01-29T12:51:14.165Z,28.20
2019-01-29T12:53:46.013Z,29.20
2019-01-29T12:56:21.562Z,30.10
2019-01-29T12:58:51.516Z,29.70
2019-01-29T13:01:23.410Z,30.60
2019-01-29T13:03:55.257Z,30.80
2019-01-29T13:06:27.148Z,31.80
2019-01-29T13:08:58.984Z,32.30
2019-01-29T13:11:30.864Z,32.60
2019-01-29T13:14:02.729Z,32.90
2019-01-29T13:16:34.629Z,33.50
2019-01-29T13:19:06.694Z,33.80
2019-01-29T13:21:38.603Z,34.30
2019-01-29T13:24:10.524Z,34.30
2019-01-29T13:26:42.412Z,33.40
2019-01-29T13:29:14.403Z,34.00
2019-01-29T13:31:46.298Z,33.40
2019-01-29T13:34:18.162Z,34.00
2019-01-29T13:36:50.086Z,33.60
2019-01-29T13:39:21.943Z,34.90
2019-01-29T13:41:53.935Z,34.80
2019-01-29T13:44:25.788Z,35.10
2019-01-29T13:46:57.679Z,35.40
2019-01-29T13:49:29.608Z,35.50
2019-01-29T13:52:01.490Z,35.90
2019-01-29T13:54:33.407Z,36.10
2019-01-29T13:57:05.311Z,35.00
2019-01-29T13:59:37.198Z,35.10
2019-01-29T14:02:09.226Z,35.10
2019-01-29T14:04:41.138Z,35.40
2019-01-29T14:07:13.072Z,36.30
2019-01-29T14:09:45.283Z,36.10
2019-01-29T14:12:17.498Z,35.90
2019-01-29T14:14:49.731Z,36.10
2019-01-29T14:17:21.706Z,35.20
2019-01-29T14:19:53.546Z,33.40
2019-01-29T14:22:25.431Z,32.60
2019-01-29T14:24:57.467Z,32.70
2019-01-29T14:27:29.197Z,33.00
2019-01-29T14:30:03.647Z,34.40
2019-01-29T14:32:36.718Z,34.40
2019-01-29T14:35:09.513Z,33.90
2019-01-29T14:38:40.435Z,33.70
2019-01-29T14:41:12.430Z,33.80
2019-01-29T14:43:48.523Z,34.00
2019-01-29T14:46:20.768Z,33.80
2019-01-29T14:48:52.782Z,34.00
2019-01-29T14:51:25.301Z,34.30
2019-01-29T14:53:57.700Z,35.10
2019-01-29T14:56:29.806Z,37.00
2019-01-29T14:59:01.798Z,37.50
2019-01-29T15:01:34.292Z,38.00
2019-01-29T15:04:06.270Z,38.90
2019-01-29T15:06:38.638Z,39.10
2019-01-29T15:09:13.588Z,39.20
2019-01-29T15:11:45.812Z,39.40
2019-01-29T15:14:17.900Z,39.10
2019-01-29T15:17:05.844Z,39.40
2019-01-29T15:19:38.036Z,39.50
2019-01-29T15:22:10.808Z,39.70
2019-01-29T15:24:42.987Z,40.30
2019-01-29T15:27:14.911Z,40.90
2019-01-29T15:29:47.024Z,42.20
2019-01-29T15:32:19.187Z,43.00
2019-01-29T15:34:51.079Z,43.60
2019-01-29T15:37:23.914Z,44.20
2019-01-29T15:39:56.964Z,44.20
2019-01-29T15:42:29.394Z,42.90
2019-01-29T15:45:02.267Z,43.00
2019-01-29T15:47:34.849Z,43.50
2019-01-29T15:50:08.188Z,42.80
2019-01-29T15:52:48.441Z,43.60
2019-01-29T15:55:16.880Z,44.20
2019-01-29T15:57:52.011Z,44.90
2019-01-29T16:00:31.126Z,45.50
2019-01-29T16:03:03.646Z,45.10
2019-01-29T16:05:36.314Z,45.50
2019-01-29T16:08:10.529Z,45.10
2019-01-29T16:10:44.759Z,46.10
2019-01-29T16:13:19.500Z,46.20
2019-01-29T16:15:52.523Z,46.40
2019-01-29T16:18:25.565Z,46.80
2019-01-29T16:20:57.986Z,47.60
2019-01-29T16:23:31.177Z,48.50
2019-01-29T16:26:03.882Z,48.90
2019-01-29T16:28:36.905Z,49.30
2019-01-29T16:31:09.859Z,49.90
2019-01-29T16:33:44.448Z,50.20
2019-01-29T16:36:21.579Z,50.50
2019-01-29T16:38:56.975Z,51.00
2019-01-29T16:41:34.019Z,51.40
2019-01-29T16:44:09.256Z,52.30
2019-01-29T16:46:46.530Z,51.70
2019-01-29T16:49:22.791Z,51.80
2019-01-29T16:51:57.418Z,52.20
2019-01-29T16:54:33.081Z,52.60
2019-01-29T16:57:07.009Z,52.90
2019-01-29T16:59:40.249Z,53.20
2019-01-29T17:02:19.051Z,53.70
2019-01-29T17:04:53.021Z,54.20
2019-01-29T17:07:27.664Z,54.60
2019-01-29T17:10:03.333Z,54.60
2019-01-29T17:12:38.655Z,54.40
2019-01-29T17:15:20.184Z,53.90
2019-01-29T17:17:56.757Z,54.50
2019-01-29T17:20:36.865Z,54.00
2019-01-29T17:23:13.720Z,54.70
2019-01-29T17:25:52.511Z,54.80
2019-01-29T17:28:27.481Z,54.50
2019-01-29T17:31:05.080Z,54.10
2019-01-29T17:33:42.182Z,54.00
2019-01-29T17:36:20.855Z,54.00
2019-01-29T17:38:57.436Z,54.00
2019-01-29T17:41:33.087Z,54.10
2019-01-29T17:44:10.417Z,54.40
2019-01-29T17:46:46.548Z,54.10
2019-01-29T17:49:21.236Z,54.00
2019-01-29T17:51:55.569Z,54.10
2019-01-29T17:54:35.875Z,54.10
2019-01-29T17:57:12.234Z,54.00
2019-01-29T17:59:48.107Z,54.10
2019-01-29T18:02:22.431Z,54.60
2019-01-29T18:05:00.531Z,55.50
2019-01-29T18:07:36.100Z,55.90
2019-01-29T18:10:13.378Z,55.90
2019-01-29T18:12:48.325Z,55.80
2019-01-29T18:15:26.725Z,55.70
2019-01-29T18:18:01.241Z,55.50
2019-01-29T18:20:39.383Z,55.30
2019-01-29T18:23:15.196Z,55.00
2019-01-29T18:25:50.939Z,54.90
2019-01-29T18:28:27.401Z,54.30
2019-01-29T18:31:04.812Z,54.40
2019-01-29T18:33:42.677Z,54.40
2019-01-29T18:36:19.511Z,54.10
2019-01-29T18:38:56.891Z,54.00
2019-01-29T18:41:34.186Z,54.00
2019-01-29T18:44:12.606Z,54.20
2019-01-29T18:46:49.145Z,54.20
2019-01-29T18:49:26.716Z,54.10
2019-01-29T18:52:04.774Z,54.10
2019-01-29T18:54:43.122Z,54.00
2019-01-29T18:57:18.700Z,54.10
2019-01-29T18:59:55.279Z,53.90
2019-01-29T19:02:32.428Z,53.80
2019-01-29T19:05:11.181Z,53.70
2019-01-29T19:07:46.328Z,53.60
2019-01-29T19:10:24.645Z,53.50
2019-01-29T19:13:01.859Z,53.30
2019-01-29T19:15:48.608Z,53.10
2019-01-29T19:18:28.558Z,52.70
2019-01-29T19:21:07.330Z,52.40
2019-01-29T19:23:45.878Z,52.30
2019-01-29T19:26:23.948Z,53.20
2019-01-29T19:29:01.923Z,52.70
2019-01-29T19:31:42.581Z,52.90
2019-01-29T19:34:21.068Z,52.90
2019-01-29T19:36:59.575Z,53.10
2019-01-29T19:39:38.536Z,53.10
2019-01-29T19:42:27.102Z,53.10
2019-01-29T19:44:56.255Z,53.40
2019-01-29T19:47:32.990Z,53.70
2019-01-29T19:50:14.874Z,53.90
2019-01-29T19:52:52.602Z,54.10
2019-01-29T19:55:30.036Z,54.30
2019-01-29T19:58:09.189Z,54.50
2019-01-29T20:00:47.941Z,54.40
2019-01-29T20:03:27.010Z,54.30
2019-01-29T20:06:05.101Z,54.20
2019-01-29T20:08:43.341Z,54.10
2019-01-29T20:11:23.358Z,53.80
2019-01-29T20:14:01.579Z,53.70
2019-01-29T20:16:38.902Z,53.60
2019-01-29T20:19:16.212Z,53.50
2019-01-29T20:21:52.206Z,53.50
2019-01-29T20:24:28.797Z,54.10
2019-01-29T20:27:05.669Z,53.60
2019-01-29T20:29:40.440Z,53.60
2019-01-29T20:32:16.033Z,53.40
2019-01-29T20:34:50.076Z,53.40
2019-01-29T20:37:24.038Z,53.40
2019-01-29T20:39:57.483Z,53.40
2019-01-29T20:42:31.053Z,53.30
2019-01-29T20:45:03.190Z,53.30
2019-01-29T20:47:36.338Z,53.00
2019-01-29T20:50:14.113Z,53.40
2019-01-29T20:52:46.214Z,53.40
2019-01-29T20:55:18.263Z,53.20
2019-01-29T20:57:50.464Z,52.90
2019-01-29T21:00:27.731Z,53.00
2019-01-29T21:03:00.016Z,52.80
2019-01-29T21:05:32.166Z,52.50
2019-01-29T21:08:04.039Z,52.60
2019-01-29T21:10:35.946Z,52.70
2019-01-29T21:13:07.841Z,52.80
2019-01-29T21:15:39.843Z,52.90
2019-01-29T21:18:11.725Z,52.80
2019-01-29T21:20:43.670Z,52.90
2019-01-29T21:23:15.626Z,52.90
2019-01-29T21:25:47.527Z,53.00
2019-01-29T21:28:19.488Z,53.00
2019-01-29T21:30:53.505Z,52.90
2019-01-29T21:33:25.385Z,52.80
2019-01-29T21:35:57.338Z,52.80
2019-01-29T21:38:29.225Z,52.80
2019-01-29T21:41:03.505Z,52.80
2019-01-29T21:43:35.387Z,53.00
2019-01-29T21:46:07.232Z,52.90
2019-01-29T21:48:40.246Z,52.80
2019-01-29T21:51:12.126Z,52.70
2019-01-29T21:53:44.039Z,52.60
2019-01-29T21:56:16.054Z,52.60
2019-01-29T21:58:48.143Z,52.60
2019-01-29T22:01:20.742Z,52.50
2019-01-29T22:03:52.628Z,52.20
2019-01-29T22:06:24.507Z,52.30
2019-01-29T22:08:56.484Z,52.60
2019-01-29T22:11:28.426Z,52.90
2019-01-29T22:14:00.671Z,53.30
2019-01-29T22:16:32.991Z,53.40
2019-01-29T22:19:05.040Z,53.30
2019-01-29T22:21:36.878Z,53.30
2019-01-29T22:24:08.955Z,53.30
2019-01-29T22:26:40.809Z,53.10
2019-01-29T22:29:12.703Z,52.90
2019-01-29T22:31:44.560Z,52.70
2019-01-29T22:34:16.458Z,52.60
2019-01-29T22:36:51.040Z,52.80
2019-01-29T22:39:22.921Z,52.80
2019-01-29T22:41:54.775Z,52.90
2019-01-29T22:44:26.665Z,52.90
2019-01-29T22:46:59.008Z,53.00
2019-01-29T22:49:30.995Z,52.90
2019-01-29T22:52:02.894Z,52.90
2019-01-29T22:54:34.773Z,52.80
2019-01-29T22:57:07.301Z,52.50
2019-01-29T22:59:39.210Z,52.50
2019-01-29T23:02:11.234Z,52.40
2019-01-29T23:04:47.169Z,52.50
2019-01-29T23:07:26.572Z,52.40
2019-01-29T23:09:58.460Z,52.30
2019-01-29T23:12:30.331Z,52.30
2019-01-29T23:15:02.402Z,52.10
2019-01-29T23:17:34.290Z,51.90
2019-01-29T23:20:07.963Z,52.20
2019-01-29T23:22:39.881Z,52.30
2019-01-29T23:25:12.580Z,52.30
2019-01-29T23:27:44.440Z,52.30
2019-01-29T23:30:17.727Z,52.30
2019-01-29T23:32:49.754Z,52.30
2019-01-29T23:35:21.757Z,52.40
2019-01-29T23:37:53.634Z,52.40
2019-01-29T23:40:25.552Z,52.40
2019-01-29T23:42:57.321Z,52.30
2019-01-29T23:45:29.198Z,52.20
2019-01-29T23:48:01.168Z,52.10
2019-01-29T23:50:33.291Z,52.00
2019-01-29T23:53:05.351Z,52.10
2019-01-29T23:55:37.266Z,52.00
2019-01-29T23:58:09.285Z,52.10
